DEPPC EDDC-EDDC

Flight info

Callsign DEPPC
Flight time 0h 40m
Altitude
Route
Aircraft DA40

Departure

Time 2026-05-07 19:36
Airport Dresden Airport (EDDC)

Arrival

Time 2026-05-07 20:17
Airport Dresden Airport (EDDC)
Time Latitude Longitude Altitude Speed Heading
2026-05-07 19:26 51.12332 13.75951 752 ft 0 kts 40°
2026-05-07 19:26 51.12338 13.75991 749 ft 6 kts 112°
2026-05-07 19:27 51.12369 13.76037 751 ft 6 kts 353°
2026-05-07 19:27 51.12410 13.75971 755 ft 13 kts 310°
2026-05-07 19:27 51.12413 13.75871 756 ft 13 kts 221°
2026-05-07 19:27 51.12368 13.75771 756 ft 7 kts 278°
2026-05-07 19:28 51.12386 13.75697 757 ft 5 kts 291°
2026-05-07 19:28 51.12403 13.75631 757 ft 3 kts 292°
2026-05-07 19:28 51.12405 13.75626 756 ft 0 kts 292°
2026-05-07 19:34 51.12418 13.75580 757 ft 10 kts 305°
2026-05-07 19:34 51.12475 13.75494 756 ft 6 kts 353°
2026-05-07 19:34 51.12493 13.75502 757 ft 0 kts 40°
2026-05-07 19:36 51.12609 13.75661 757 ft 53 kts 41°
2026-05-07 19:36 51.12963 13.76158 930 ft 72 kts 40°
2026-05-07 19:36 51.13356 13.76678 1211 ft 72 kts 35°
2026-05-07 19:36 51.13739 13.77191 1484 ft 73 kts 37°
2026-05-07 19:37 51.14155 13.77624 1734 ft 78 kts
2026-05-07 19:37 51.14710 13.77368 1803 ft 87 kts 328°
2026-05-07 19:37 51.15147 13.76668 1810 ft 92 kts 312°
2026-05-07 19:37 51.15485 13.75784 1865 ft 100 kts 284°
2026-05-07 19:38 51.15203 13.74769 1894 ft 108 kts 226°
2026-05-07 19:38 51.14882 13.73767 1962 ft 106 kts 270°
2026-05-07 19:38 51.15071 13.72689 1969 ft 100 kts 309°
2026-05-07 19:38 51.15681 13.72260 1881 ft 101 kts
2026-05-07 19:39 51.16189 13.72917 1836 ft 102 kts 74°
2026-05-07 19:39 51.15902 13.73893 1802 ft 105 kts 146°
2026-05-07 19:39 51.15202 13.73924 1767 ft 105 kts 212°
2026-05-07 19:39 51.14841 13.73014 1775 ft 98 kts 264°
2026-05-07 19:40 51.14965 13.71994 1798 ft 95 kts 303°
2026-05-07 19:40 51.15476 13.71374 1802 ft 94 kts 347°
2026-05-07 19:40 51.16114 13.71549 1791 ft 96 kts 31°
2026-05-07 19:40 51.16477 13.72376 1819 ft 98 kts 76°
2026-05-07 19:41 51.16279 13.73395 1835 ft 103 kts 133°
2026-05-07 19:41 51.15600 13.73704 1817 ft 108 kts 189°
2026-05-07 19:41 51.15021 13.73057 1846 ft 104 kts 246°
2026-05-07 19:41 51.14987 13.71942 1834 ft 101 kts 294°
2026-05-07 19:42 51.15466 13.71231 1840 ft 96 kts 348°
2026-05-07 19:42 51.16073 13.71553 1824 ft 98 kts 49°
2026-05-07 19:42 51.16172 13.72601 1840 ft 102 kts 109°
2026-05-07 19:42 51.15695 13.73459 1834 ft 105 kts 134°
2026-05-07 19:43 51.15130 13.74206 1844 ft 105 kts 151°
2026-05-07 19:43 51.14413 13.74281 1846 ft 106 kts 200°
2026-05-07 19:43 51.13805 13.73661 1760 ft 105 kts 219°
2026-05-07 19:43 51.13272 13.72974 1671 ft 91 kts 223°
2026-05-07 19:44 51.12816 13.72330 1516 ft 86 kts 223°
2026-05-07 19:44 51.12287 13.72023 1388 ft 85 kts 171°
2026-05-07 19:44 51.11752 13.72416 1255 ft 85 kts 140°
2026-05-07 19:44 51.11425 13.73170 1135 ft 83 kts 101°
2026-05-07 19:45 51.11511 13.73993 1056 ft 74 kts 59°
2026-05-07 19:45 51.11849 13.74606 965 ft 75 kts 40°
2026-05-07 19:45 51.12247 13.75159 878 ft 76 kts 40°
2026-05-07 19:45 51.12626 13.75688 770 ft 69 kts 40°
2026-05-07 19:46 51.12936 13.76110 750 ft 51 kts 41°
2026-05-07 19:46 51.13249 13.76541 800 ft 70 kts 38°
2026-05-07 19:46 51.13605 13.77088 1013 ft 73 kts 38°
2026-05-07 19:46 51.14004 13.77583 1259 ft 70 kts 34°
2026-05-07 19:47 51.14409 13.77990 1486 ft 69 kts
2026-05-07 19:47 51.14851 13.77576 1657 ft 83 kts 312°
2026-05-07 19:47 51.15225 13.76855 1819 ft 81 kts 311°
2026-05-07 19:47 51.15434 13.76009 1774 ft 89 kts 262°
2026-05-07 19:48 51.15052 13.75236 1748 ft 92 kts 219°
2026-05-07 19:48 51.14549 13.74670 1789 ft 88 kts 215°
2026-05-07 19:48 51.14036 13.74110 1773 ft 90 kts 215°
2026-05-07 19:48 51.13544 13.73488 1747 ft 89 kts 222°
2026-05-07 19:49 51.13097 13.72861 1636 ft 83 kts 225°
2026-05-07 19:49 51.12679 13.72233 1470 ft 84 kts 222°
2026-05-07 19:49 51.12148 13.71952 1353 ft 80 kts 171°
2026-05-07 19:49 51.11697 13.72402 1230 ft 79 kts 128°
2026-05-07 19:50 51.11372 13.73059 1161 ft 72 kts 122°
2026-05-07 19:50 51.11280 13.73770 1070 ft 69 kts 58°
2026-05-07 19:50 51.11617 13.74291 1021 ft 67 kts 37°
2026-05-07 19:50 51.11967 13.74784 946 ft 67 kts 36°
2026-05-07 19:51 51.12323 13.75268 854 ft 68 kts 38°
2026-05-07 19:51 51.12670 13.75743 759 ft 59 kts 42°
2026-05-07 19:51 51.12932 13.76105 750 ft 51 kts 41°
2026-05-07 19:51 51.13288 13.76600 934 ft 70 kts 37°
2026-05-07 19:52 51.13675 13.77115 1200 ft 72 kts 36°
2026-05-07 19:52 51.14103 13.77496 1442 ft 78 kts 359°
2026-05-07 19:52 51.14521 13.76980 1750 ft 80 kts 305°
2026-05-07 19:52 51.14831 13.76216 1786 ft 87 kts 305°
2026-05-07 19:53 51.15086 13.75343 1817 ft 90 kts 275°
2026-05-07 19:53 51.14758 13.74511 1824 ft 96 kts 217°
2026-05-07 19:53 51.14237 13.73888 1838 ft 93 kts 217°
2026-05-07 19:53 51.13712 13.73315 1790 ft 91 kts 214°
2026-05-07 19:54 51.13216 13.72776 1677 ft 83 kts 215°
2026-05-07 19:54 51.12735 13.72318 1534 ft 80 kts 205°
2026-05-07 19:54 51.12225 13.72415 1379 ft 79 kts 133°
2026-05-07 19:54 51.11908 13.73086 1269 ft 74 kts 120°
2026-05-07 19:55 51.11683 13.73769 1066 ft 71 kts 105°
2026-05-07 19:55 51.11767 13.74455 977 ft 66 kts 46°
2026-05-07 19:55 51.12097 13.74948 920 ft 64 kts 40°
2026-05-07 19:55 51.12430 13.75411 822 ft 64 kts 39°
2026-05-07 19:56 51.12748 13.75850 756 ft 50 kts 40°
2026-05-07 19:56 51.13037 13.76249 785 ft 70 kts 40°
2026-05-07 19:56 51.13422 13.76772 1046 ft 74 kts 36°
2026-05-07 19:56 51.13898 13.77078 1275 ft 84 kts 356°
2026-05-07 19:57 51.14412 13.76763 1625 ft 80 kts 333°
2026-05-07 19:57 51.14937 13.76371 1831 ft 87 kts 345°
2026-05-07 19:57 51.15545 13.76177 1973 ft 94 kts 349°
2026-05-07 19:57 51.16251 13.75909 1991 ft 113 kts 346°
2026-05-07 19:58 51.17032 13.75559 1984 ft 118 kts 344°
2026-05-07 19:58 51.17815 13.75185 1994 ft 117 kts 346°
2026-05-07 19:58 51.18594 13.74804 1994 ft 118 kts 344°
2026-05-07 19:58 51.19382 13.74470 2004 ft 117 kts 346°
2026-05-07 19:59 51.20168 13.74133 2001 ft 117 kts 346°
2026-05-07 19:59 51.20952 13.73844 1988 ft 118 kts 352°
2026-05-07 19:59 51.21750 13.73629 2014 ft 116 kts 351°
2026-05-07 19:59 51.22547 13.73366 1996 ft 117 kts 349°
2026-05-07 20:00 51.23320 13.72977 1992 ft 118 kts 332°
2026-05-07 20:00 51.23831 13.71969 1974 ft 122 kts 289°
2026-05-07 20:00 51.23829 13.70614 1982 ft 123 kts 262°
2026-05-07 20:00 51.23531 13.69326 1977 ft 125 kts 246°
2026-05-07 20:01 51.23082 13.68145 1984 ft 125 kts 238°
2026-05-07 20:01 51.22654 13.66957 1981 ft 125 kts 242°
2026-05-07 20:01 51.22150 13.65827 1984 ft 125 kts 235°
2026-05-07 20:01 51.21640 13.64714 1996 ft 124 kts 236°
2026-05-07 20:02 51.21120 13.63604 1968 ft 126 kts 233°
2026-05-07 20:02 51.20576 13.62518 1974 ft 125 kts 233°
2026-05-07 20:02 51.20030 13.61448 1969 ft 125 kts 232°
2026-05-07 20:02 51.19485 13.60361 1958 ft 125 kts 234°
2026-05-07 20:03 51.19013 13.59201 1944 ft 125 kts 240°
2026-05-07 20:03 51.18507 13.58075 1940 ft 125 kts 231°
2026-05-07 20:03 51.17941 13.57036 1965 ft 124 kts 231°
2026-05-07 20:03 51.17388 13.56008 1960 ft 125 kts 230°
2026-05-07 20:04 51.16764 13.55046 1985 ft 124 kts 224°
2026-05-07 20:04 51.16149 13.54110 2026 ft 121 kts 232°
2026-05-07 20:04 51.15657 13.53017 2047 ft 121 kts 238°
2026-05-07 20:04 51.15231 13.51955 2037 ft 101 kts 241°
2026-05-07 20:05 51.14897 13.51105 1978 ft 83 kts 240°
2026-05-07 20:05 51.14593 13.50335 1967 ft 82 kts 238°
2026-05-07 20:05 51.14274 13.49579 1953 ft 80 kts 236°
2026-05-07 20:05 51.13769 13.49298 1876 ft 88 kts 154°
2026-05-07 20:06 51.13479 13.49993 1905 ft 75 kts 105°
2026-05-07 20:06 51.13317 13.50796 1960 ft 76 kts 104°
2026-05-07 20:06 51.13114 13.51585 2014 ft 77 kts 107°
2026-05-07 20:06 51.12873 13.52353 2029 ft 79 kts 114°
2026-05-07 20:07 51.12614 13.53140 2021 ft 82 kts 112°
2026-05-07 20:07 51.12379 13.53952 2090 ft 78 kts 114°
2026-05-07 20:07 51.12172 13.54786 2090 ft 88 kts 95°
2026-05-07 20:07 51.12142 13.55814 2102 ft 98 kts 88°
2026-05-07 20:08 51.12152 13.56923 2047 ft 98 kts 84°
2026-05-07 20:08 51.12206 13.58064 2026 ft 109 kts 82°
2026-05-07 20:08 51.12282 13.59284 2052 ft 111 kts 79°
2026-05-07 20:08 51.12440 13.60481 2075 ft 113 kts 75°
2026-05-07 20:09 51.12631 13.61708 2077 ft 115 kts 72°
2026-05-07 20:09 51.12870 13.62923 2108 ft 114 kts 66°
2026-05-07 20:09 51.13197 13.64092 2091 ft 117 kts 63°
2026-05-07 20:10 51.13910 13.66444 2028 ft 118 kts 62°
2026-05-07 20:10 51.14280 13.67613 1991 ft 117 kts 61°
2026-05-07 20:10 51.14635 13.68763 1989 ft 115 kts 63°
2026-05-07 20:10 51.14942 13.69940 1998 ft 114 kts 69°
2026-05-07 20:11 51.15143 13.71144 2031 ft 112 kts 76°
2026-05-07 20:11 51.15251 13.72365 2047 ft 111 kts 84°
2026-05-07 20:11 51.15327 13.73557 2046 ft 108 kts 62°
2026-05-07 20:11 51.15893 13.74216 2035 ft 105 kts
2026-05-07 20:12 51.16545 13.73781 2013 ft 108 kts 310°
2026-05-07 20:12 51.16614 13.72622 1994 ft 113 kts 244°
2026-05-07 20:12 51.15937 13.72048 1946 ft 117 kts 176°
2026-05-07 20:12 51.15315 13.72744 1949 ft 110 kts 110°
2026-05-07 20:13 51.15409 13.73858 1965 ft 103 kts 48°
2026-05-07 20:13 51.16065 13.74153 1962 ft 103 kts 345°
2026-05-07 20:13 51.16493 13.73322 1980 ft 106 kts 278°
2026-05-07 20:13 51.16198 13.72291 1966 ft 113 kts 216°
2026-05-07 20:14 51.15431 13.72029 1954 ft 113 kts 185°
2026-05-07 20:14 51.14650 13.71979 1962 ft 112 kts 180°
2026-05-07 20:14 51.13872 13.71963 1954 ft 113 kts 178°
2026-05-07 20:14 51.13171 13.71968 1859 ft 95 kts 180°
2026-05-07 20:15 51.12569 13.71965 1737 ft 82 kts 175°
2026-05-07 20:15 51.12012 13.72139 1553 ft 80 kts 157°
2026-05-07 20:15 51.11571 13.72616 1405 ft 72 kts 128°
2026-05-07 20:15 51.11283 13.73251 1282 ft 70 kts 109°
2026-05-07 20:16 51.11347 13.73941 1141 ft 67 kts 45°
2026-05-07 20:16 51.11702 13.74406 1046 ft 66 kts 36°
2026-05-07 20:16 51.12054 13.74895 941 ft 67 kts 37°
2026-05-07 20:16 51.12411 13.75382 849 ft 67 kts 39°
2026-05-07 20:17 51.12760 13.75868 764 ft 62 kts 40°
2026-05-07 20:17 51.13028 13.76235 750 ft 49 kts 40°
2026-05-07 20:17 51.13218 13.76496 743 ft 59 kts 41°
2026-05-07 20:17 51.13519 13.76915 731 ft 53 kts 40°
2026-05-07 20:18 51.13865 13.77394 716 ft 50 kts 42°
2026-05-07 20:18 51.14125 13.77751 707 ft 38 kts 40°
2026-05-07 20:18 51.14299 13.77991 702 ft 29 kts 41°
2026-05-07 20:18 51.14367 13.78088 694 ft 14 kts 53°
2026-05-07 20:19 51.14360 13.78186 696 ft 9 kts 132°
2026-05-07 20:19 51.14292 13.78308 701 ft 20 kts 130°
2026-05-07 20:19 51.14208 13.78344 696 ft 15 kts 222°
2026-05-07 20:19 51.14106 13.78203 703 ft 24 kts 221°
2026-05-07 20:20 51.14075 13.78160 706 ft 0 kts 220°
2026-05-07 20:20 51.14073 13.78158 706 ft 4 kts 220°
2026-05-07 20:21 51.14010 13.78069 708 ft 19 kts 220°
2026-05-07 20:21 51.13869 13.77864 706 ft 34 kts 220°
2026-05-07 20:21 51.13742 13.77700 707 ft 20 kts 216°
2026-05-07 20:21 51.13630 13.77546 712 ft 22 kts 220°
2026-05-07 20:22 51.13506 13.77376 721 ft 24 kts 220°
2026-05-07 20:22 51.13374 13.77197 731 ft 25 kts 220°
2026-05-07 20:22 51.13238 13.77007 739 ft 27 kts 220°
2026-05-07 20:22 51.13089 13.76800 744 ft 29 kts 222°
2026-05-07 20:23 51.12938 13.76594 746 ft 29 kts 219°
2026-05-07 20:23 51.12790 13.76387 746 ft 28 kts 220°
2026-05-07 20:23 51.12652 13.76201 750 ft 15 kts 218°
2026-05-07 20:23 51.12599 13.76127 753 ft 9 kts 222°
2026-05-07 20:24 51.12558 13.76105 754 ft 6 kts 159°
2026-05-07 20:24 51.12517 13.76168 752 ft 12 kts 131°
2026-05-07 20:24 51.12468 13.76170 751 ft 9 kts 221°
2026-05-07 20:24 51.12380 13.76055 749 ft 20 kts 216°
2026-05-07 20:25 51.12308 13.75964 751 ft 13 kts 214°
2026-05-07 20:25 51.12309 13.75927 749 ft 6 kts 313°
2026-05-07 20:25 51.12331 13.75896 754 ft 3 kts 16°
2026-05-07 20:25 51.12354 13.75923 752 ft 0 kts 36°